FranceFixed distance
Le Grand Raid de la Réunion
20–21 Oct2006
Distance
148km
Finishers
1,4021,272 men130 women
Winning time
20:39:40h
Median pace
3.26km/h
Pace distribution
1,402 finishers · 2.35–7.16 km/h · mean 3.38
Every finisher ran the same 148 km course, so these paces are directly comparable.
Histogram of finisher pace. 1,402 finishers ranged from 2.35 to 7.16 kilometres per hour, with a mean of 3.38 and a median of 3.26. The busiest band is 2.5 to 3.0 kilometres per hour, with 415 finishers.
Results
Ranks 1,151–1,200 of 1,402
| Rank | Runner | Time | Pace | Cat. | Placing |
|---|---|---|---|---|---|
| 1151 | Cadet, Eric-LaurentFranceMan | 2d09:01:41h | 2.60 | — | 1071st M |
| 1152 | Croissant, DominiqueFranceMan | 2d09:02:01h | 2.60 | M23 | 1072nd M · 187th M23 |
| 1153 | Le Guiffant, JeanFranceMan | 2d09:02:11h | 2.60 | — | 1073rd M |
| 1154 | Turpin, NadegeFranceWoman | 2d09:02:31h | 2.60 | — | 81st F |
| 1155 | Sery, Jean-MaxFranceMan | 2d09:02:35h | 2.60 | M40 | 1074th M · 175th M40 |
| 1156 | Elisabeth, Pierre-IreneFranceMan | 2d09:03:02h | 2.59 | M55 | 1075th M · 19th M55 |
| 1157 | Ah Teck, Chan-TawFranceMan | 2d09:03:53h | 2.59 | — | 1076th M |
| 1158 | Pothin, Alexandre-J.VincentFranceMan | 2d09:04:29h | 2.59 | — | 1077th M |
| 1159 | Dewez, FrancisFranceMan | 2d09:04:35h | 2.59 | — | 1078th M |
| 1160 | Palama, OlivierFranceMan | 2d09:04:45h | 2.59 | M23 | 1079th M · 188th M23 |
| 1161 | Ritner, Jean-JudexFranceMan | 2d09:05:56h | 2.59 | — | 1080th M |
| 1162 | Cauet, GeorgesFranceMan | 2d09:06:17h | 2.59 | M55 | 1081st M · 20th M55 |
| 1163 | Hoareau, JacquesFranceMan | 2d09:06:20h | 2.59 | — | 1082nd M |
| 1164 | Vincent, AntoineFranceMan | 2d09:06:23h | 2.59 | — | 1083rd M |
| 1165 | Choucair, YoussefFranceMan | 2d09:08:43h | 2.59 | M55 | 1084th M · 21st M55 |
| 1166 | Ravily-Beurard, BrigitteFranceWoman | 2d09:09:59h | 2.59 | W40 | 82nd F · 16th W40 |
| 1167 | Penet, PatrickFranceMan | 2d09:10:59h | 2.59 | — | 1085th M |
| 1168 | Lavigne, SaraFranceWoman | 2d09:12:45h | 2.59 | — | 83rd F |
| 1169 | Croguennec, LaurentFranceMan | 2d09:13:35h | 2.59 | — | 1086th M |
| 1170 | Dubois, PhilippeFranceMan | 2d09:14:32h | 2.59 | — | 1087th M |
| 1171 | Scola, ElsaFranceWoman | 2d09:15:44h | 2.58 | W23 | 84th F · 16th W23 |
| 1172 | Guchet, PierreFranceMan | 2d09:15:49h | 2.58 | M23 | 1088th M · 189th M23 |
| 1173 | Seigneuric, ClaireFranceWoman | 2d09:16:13h | 2.58 | — | 85th F |
| 1174 | Chateauminois, EricFranceMan | 2d09:16:18h | 2.58 | — | 1089th M |
| 1175 | Weber, RichardFranceMan | 2d09:18:29h | 2.58 | M50 | 1090th M · 59th M50 |
| 1176 | Lin, LouisFranceMan | 2d09:20:17h | 2.58 | — | 1091st M |
| 1177 | Testan, Fredy ClaudeFranceMan | 2d09:20:20h | 2.58 | M23 | 1092nd M · 190th M23 |
| 1178 | Fontaine, AlainFranceMan | 2d09:25:33h | 2.58 | — | 1093rd M |
| 1179 | Payet, Fabrice MaximinFranceMan | 2d09:25:39h | 2.58 | M23 | 1094th M · 191st M23 |
| 1180 | Kerouanton, LoicFranceMan | 2d09:25:48h | 2.58 | M35 | 1095th M · 141st M35 |
| 1181 | Filaumart, MarcFranceMan | 2d09:25:55h | 2.58 | — | 1096th M |
| 1182 | Wengler, GuyLuxembourgMan | 2d09:30:14h | 2.57 | M60 | 1097th M · 5th M60 |
| 1183 | Wengler, VivianeLuxembourgWoman | 2d09:30:17h | 2.57 | W40 | 86th F · 17th W40 |
| 1184 | Laporte, BrunoFranceMan | 2d09:30:59h | 2.57 | M45 | 1098th M · 116th M45 |
| 1185 | Dupuis, Jean-YvesFranceMan | 2d09:35:29h | 2.57 | M45 | 1099th M · 117th M45 |
| 1186 | Camus, PhilippeFranceMan | 2d09:36:34h | 2.57 | — | 1100th M |
| 1187 | Camus, FabriceFranceMan | 2d09:36:39h | 2.57 | M23 | 1101st M · 192nd M23 |
| 1188 | Colin, CelineFranceWoman | 2d09:38:26h | 2.57 | W23 | 87th F · 17th W23 |
| 1189 | Huellou, GwenolaFranceWoman | 2d09:39:01h | 2.57 | W35 | 88th F · 8th W35 |
| 1190 | Bontemps, DominiqueFranceMan | 2d09:39:14h | 2.57 | M55 | 1102nd M · 22nd M55 |
| 1191 | Daffond, BernardFranceMan | 2d09:41:24h | 2.56 | — | 1103rd M |
| 1192 | Faroux, SylvainFranceMan | 2d09:47:34h | 2.56 | — | 1104th M |
| 1193 | Lebahar, JosselinFranceMan | 2d09:47:39h | 2.56 | — | 1105th M |
| 1194 | Poirot, NicolasFranceMan | 2d09:47:42h | 2.56 | M23 | 1106th M · 193rd M23 |
| 1195 | Remy, HubertFranceMan | 2d09:48:35h | 2.56 | M50 | 1107th M · 60th M50 |
| 1196 | Delaby, FrancisFranceMan | 2d09:48:43h | 2.56 | M55 | 1108th M · 23rd M55 |
| 1197 | Pause, Marie-AnnickFranceWoman | 2d09:51:19h | 2.56 | W45 | 89th F · 13th W45 |
| 1198 | Givron, MichelFranceMan | 2d09:52:08h | 2.56 | — | 1109th M |
| 1199 | Berteloot, JackieFranceMan | 2d09:52:18h | 2.56 | M45 | 1110th M · 118th M45 |
| 1200 | Berteloot, MaryseFranceWoman | 2d09:52:22h | 2.56 | W40 | 90th F · 18th W40 |
- 1151Cadet, Eric-LaurentFranceMan1071st MTime2d09:01:41hPace2.60
- 1152Croissant, DominiqueFranceMan1072nd M · 187th M23Time2d09:02:01hPace2.60Cat.M23
- 1153Le Guiffant, JeanFranceMan1073rd MTime2d09:02:11hPace2.60
- 1154Turpin, NadegeFranceWoman81st FTime2d09:02:31hPace2.60
- 1155Sery, Jean-MaxFranceMan1074th M · 175th M40Time2d09:02:35hPace2.60Cat.M40
- 1156Elisabeth, Pierre-IreneFranceMan1075th M · 19th M55Time2d09:03:02hPace2.59Cat.M55
- 1157Ah Teck, Chan-TawFranceMan1076th MTime2d09:03:53hPace2.59
- 1158Pothin, Alexandre-J.VincentFranceMan1077th MTime2d09:04:29hPace2.59
- 1159Dewez, FrancisFranceMan1078th MTime2d09:04:35hPace2.59
- 1160Palama, OlivierFranceMan1079th M · 188th M23Time2d09:04:45hPace2.59Cat.M23
- 1161Ritner, Jean-JudexFranceMan1080th MTime2d09:05:56hPace2.59
- 1162Cauet, GeorgesFranceMan1081st M · 20th M55Time2d09:06:17hPace2.59Cat.M55
- 1163Hoareau, JacquesFranceMan1082nd MTime2d09:06:20hPace2.59
- 1164Vincent, AntoineFranceMan1083rd MTime2d09:06:23hPace2.59
- 1165Choucair, YoussefFranceMan1084th M · 21st M55Time2d09:08:43hPace2.59Cat.M55
- 1166Ravily-Beurard, BrigitteFranceWoman82nd F · 16th W40Time2d09:09:59hPace2.59Cat.W40
- 1167Penet, PatrickFranceMan1085th MTime2d09:10:59hPace2.59
- 1168Lavigne, SaraFranceWoman83rd FTime2d09:12:45hPace2.59
- 1169Croguennec, LaurentFranceMan1086th MTime2d09:13:35hPace2.59
- 1170Dubois, PhilippeFranceMan1087th MTime2d09:14:32hPace2.59
- 1171Scola, ElsaFranceWoman84th F · 16th W23Time2d09:15:44hPace2.58Cat.W23
- 1172Guchet, PierreFranceMan1088th M · 189th M23Time2d09:15:49hPace2.58Cat.M23
- 1173Seigneuric, ClaireFranceWoman85th FTime2d09:16:13hPace2.58
- 1174Chateauminois, EricFranceMan1089th MTime2d09:16:18hPace2.58
- 1175Weber, RichardFranceMan1090th M · 59th M50Time2d09:18:29hPace2.58Cat.M50
- 1176Lin, LouisFranceMan1091st MTime2d09:20:17hPace2.58
- 1177Testan, Fredy ClaudeFranceMan1092nd M · 190th M23Time2d09:20:20hPace2.58Cat.M23
- 1178Fontaine, AlainFranceMan1093rd MTime2d09:25:33hPace2.58
- 1179Payet, Fabrice MaximinFranceMan1094th M · 191st M23Time2d09:25:39hPace2.58Cat.M23
- 1180Kerouanton, LoicFranceMan1095th M · 141st M35Time2d09:25:48hPace2.58Cat.M35
- 1181Filaumart, MarcFranceMan1096th MTime2d09:25:55hPace2.58
- 1182Wengler, GuyLuxembourgMan1097th M · 5th M60Time2d09:30:14hPace2.57Cat.M60
- 1183Wengler, VivianeLuxembourgWoman86th F · 17th W40Time2d09:30:17hPace2.57Cat.W40
- 1184Laporte, BrunoFranceMan1098th M · 116th M45Time2d09:30:59hPace2.57Cat.M45
- 1185Dupuis, Jean-YvesFranceMan1099th M · 117th M45Time2d09:35:29hPace2.57Cat.M45
- 1186Camus, PhilippeFranceMan1100th MTime2d09:36:34hPace2.57
- 1187Camus, FabriceFranceMan1101st M · 192nd M23Time2d09:36:39hPace2.57Cat.M23
- 1188Colin, CelineFranceWoman87th F · 17th W23Time2d09:38:26hPace2.57Cat.W23
- 1189Huellou, GwenolaFranceWoman88th F · 8th W35Time2d09:39:01hPace2.57Cat.W35
- 1190Bontemps, DominiqueFranceMan1102nd M · 22nd M55Time2d09:39:14hPace2.57Cat.M55
- 1191Daffond, BernardFranceMan1103rd MTime2d09:41:24hPace2.56
- 1192Faroux, SylvainFranceMan1104th MTime2d09:47:34hPace2.56
- 1193Lebahar, JosselinFranceMan1105th MTime2d09:47:39hPace2.56
- 1194Poirot, NicolasFranceMan1106th M · 193rd M23Time2d09:47:42hPace2.56Cat.M23
- 1195Remy, HubertFranceMan1107th M · 60th M50Time2d09:48:35hPace2.56Cat.M50
- 1196Delaby, FrancisFranceMan1108th M · 23rd M55Time2d09:48:43hPace2.56Cat.M55
- 1197Pause, Marie-AnnickFranceWoman89th F · 13th W45Time2d09:51:19hPace2.56Cat.W45
- 1198Givron, MichelFranceMan1109th MTime2d09:52:08hPace2.56
- 1199Berteloot, JackieFranceMan1110th M · 118th M45Time2d09:52:18hPace2.56Cat.M45
- 1200Berteloot, MaryseFranceWoman90th F · 18th W40Time2d09:52:22hPace2.56Cat.W40
Showing ranks 1,151–1,200 of 1,402